Time;durP1;ratioP1;P1;durP2;ratioP2;P2;SDS_P1;SDS_P2;PMS_P1;PMS_P2;Temp;Humidity;BMP_temperature;BMP_pressure;BME280_temperature;BME280_humidity;BME280_pressure;Samples;Min_cycle;Max_cycle;Signal;HPM_P1;HPM_P2
2020/12/21 00:03:03;;;;;;;18.03;12.60;;;;;;;10.59;61.76;101825.94;6040473;29;20233;-73
2020/12/21 00:06:23;;;;;;;11.10;9.73;;;;;;;10.48;61.87;101817.19;6045249;29;20245;-74
2020/12/21 00:09:43;;;;;;;15.27;11.40;;;;;;;10.44;61.77;101818.03;6041877;29;20780;-73
2020/12/21 00:13:04;;;;;;;15.03;12.17;;;;;;;10.43;61.81;101809.34;6043720;29;20711;-73
2020/12/21 00:16:24;;;;;;;16.30;11.00;;;;;;;10.48;61.57;101811.13;6042157;29;20241;-73
2020/12/21 00:19:46;;;;;;;17.83;11.10;;;;;;;10.27;62.23;101801.38;6042471;29;20233;-73
2020/12/21 00:23:06;;;;;;;12.70;11.40;;;;;;;10.27;62.32;101799.63;6041078;29;20636;-75
2020/12/21 00:26:27;;;;;;;13.77;11.73;;;;;;;10.29;62.11;101804.84;6044939;29;20832;-73
2020/12/21 00:29:48;;;;;;;13.20;11.87;;;;;;;10.07;63.00;101804.69;6041950;29;20325;-73
2020/12/21 00:33:08;;;;;;;14.47;10.67;;;;;;;10.06;63.17;101810.72;6053949;29;20357;-74
2020/12/21 00:36:31;;;;;;;14.77;13.23;;;;;;;9.72;64.35;101817.34;6017778;29;20242;-74
2020/12/21 00:39:52;;;;;;;15.30;12.73;;;;;;;9.75;64.11;101817.38;6047534;29;20265;-74
2020/12/21 00:43:12;;;;;;;14.77;12.03;;;;;;;9.92;63.69;101818.41;6044194;29;20227;-74
2020/12/21 00:46:33;;;;;;;15.37;12.17;;;;;;;9.95;63.42;101815.84;6041963;29;20241;-74
2020/12/21 00:49:54;;;;;;;17.50;13.07;;;;;;;9.63;63.99;101816.41;6046688;29;20234;-73
2020/12/21 00:53:15;;;;;;;16.47;11.27;;;;;;;9.66;64.05;101823.38;6045702;29;21838;-74
2020/12/21 00:56:35;;;;;;;14.70;12.17;;;;;;;9.68;64.24;101820.78;6046835;29;20241;-73
2020/12/21 00:59:56;;;;;;;14.77;12.30;;;;;;;9.39;65.28;101816.13;6049117;29;20238;-74
2020/12/21 01:03:16;;;;;;;12.40;10.60;;;;;;;9.62;64.57;101814.66;6044804;29;20611;-73
2020/12/21 01:06:36;;;;;;;15.53;12.00;;;;;;;9.66;64.16;101812.97;6046184;29;20250;-73
2020/12/21 01:09:58;;;;;;;18.90;11.80;;;;;;;9.49;64.54;101815.38;6048332;29;20516;-73
2020/12/21 01:13:18;;;;;;;14.90;10.17;;;;;;;9.54;64.56;101818.91;6043355;29;20237;-73
2020/12/21 01:16:39;;;;;;;16.73;12.50;;;;;;;9.54;64.50;101824.09;6042844;29;20241;-74
2020/12/21 01:19:59;;;;;;;16.13;11.27;;;;;;;9.09;65.87;101830.47;6045640;29;20229;-72
2020/12/21 01:23:20;;;;;;;13.03;11.23;;;;;;;8.80;66.99;101841.34;6043806;29;20233;-73
2020/12/21 01:26:41;;;;;;;17.63;11.47;;;;;;;8.78;66.85;101837.84;6047774;29;20238;-73
2020/12/21 01:30:03;;;;;;;13.70;10.50;;;;;;;8.96;66.09;101839.84;6034650;29;20234;-73
2020/12/21 01:33:24;;;;;;;12.40;9.17;;;;;;;9.27;65.20;101840.25;6044029;29;20244;-72
2020/12/21 01:36:44;;;;;;;11.97;8.43;;;;;;;8.74;66.77;101843.81;6040587;29;20340;-72
2020/12/21 01:40:06;;;;;;;13.50;10.17;;;;;;;8.69;67.21;101850.69;6043742;29;20233;-73
2020/12/21 01:43:27;;;;;;;10.57;9.30;;;;;;;8.77;66.79;101841.28;6044737;29;20635;-74
2020/12/21 01:46:48;;;;;;;10.77;9.60;;;;;;;8.61;67.15;101852.31;6042768;29;20333;-73
2020/12/21 01:50:08;;;;;;;14.00;9.23;;;;;;;8.69;67.24;101840.31;6045001;29;20238;-73
2020/12/21 01:53:29;;;;;;;12.90;8.37;;;;;;;8.43;67.86;101843.38;6044101;29;20237;-73
2020/12/21 01:56:53;;;;;;;12.03;10.17;;;;;;;8.74;67.08;101833.44;6046469;29;20233;-72
2020/12/21 02:00:14;;;;;;;10.10;8.77;;;;;;;9.12;65.35;101829.66;6048253;29;20320;-72
2020/12/21 02:03:34;;;;;;;10.73;8.93;;;;;;;9.42;64.71;101826.53;6046050;29;20238;-73
2020/12/21 02:06:57;;;;;;;13.23;9.20;;;;;;;9.26;64.65;101833.28;6045115;29;20758;-73
2020/12/21 02:10:19;;;;;;;15.13;10.37;;;;;;;9.26;64.75;101836.75;6041577;29;20233;-73
2020/12/21 02:13:40;;;;;;;14.13;10.07;;;;;;;9.32;64.69;101827.28;6044017;29;20507;-73
2020/12/21 02:17:01;;;;;;;13.47;9.97;;;;;;;9.59;63.59;101832.81;6047301;29;20217;-74
2020/12/21 02:20:29;;;;;;;9.20;8.20;;;;;;;9.70;63.27;101838.16;6041274;29;20242;-73
2020/12/21 02:23:49;;;;;;;10.63;8.27;;;;;;;9.68;63.22;101834.66;6044709;29;20229;-73
2020/12/21 02:27:10;;;;;;;14.07;8.30;;;;;;;9.58;64.06;101836.28;6046941;29;20230;-74
2020/12/21 02:30:30;;;;;;;9.60;8.47;;;;;;;9.69;63.62;101827.72;6044438;29;20242;-74
2020/12/21 02:33:51;;;;;;;11.97;9.10;;;;;;;9.80;63.44;101833.91;6041909;29;20596;-74
2020/12/21 02:37:12;;;;;;;10.27;7.27;;;;;;;9.93;62.92;101834.91;6046748;29;20237;-73
2020/12/21 02:40:35;;;;;;;10.50;7.97;;;;;;;10.02;62.36;101838.47;6039241;29;20234;-74
2020/12/21 02:43:56;;;;;;;15.50;9.40;;;;;;;9.72;63.56;101826.03;6045146;29;20254;-74
2020/12/21 02:47:16;;;;;;;8.63;7.10;;;;;;;9.64;63.88;101825.06;6045820;29;20257;-74
2020/12/21 02:50:36;;;;;;;8.93;7.10;;;;;;;9.73;63.48;101829.50;6025376;29;20611;-74
2020/12/21 02:53:58;;;;;;;10.87;7.47;;;;;;;9.68;63.86;101820.78;6044753;29;20238;-74
2020/12/21 02:57:18;;;;;;;10.13;8.63;;;;;;;9.57;63.99;101821.53;6042688;29;20553;-75
2020/12/21 03:00:39;;;;;;;10.37;7.77;;;;;;;9.55;63.76;101820.63;6040640;29;20320;-75
2020/12/21 03:03:59;;;;;;;12.27;8.70;;;;;;;9.71;63.49;101829.47;6045587;29;20250;-74
2020/12/21 03:07:19;;;;;;;12.57;10.23;;;;;;;9.60;64.04;101829.38;6040346;29;20238;-74
2020/12/21 03:10:41;;;;;;;16.03;8.93;;;;;;;9.87;63.12;101833.13;6049805;29;20234;-73
2020/12/21 03:14:01;;;;;;;11.73;8.87;;;;;;;9.91;62.70;101832.28;6043864;29;20230;-73
2020/12/21 03:17:22;;;;;;;10.17;7.23;;;;;;;9.90;62.89;101833.13;6044113;29;20586;-74
2020/12/21 03:20:42;;;;;;;10.53;7.10;;;;;;;9.79;63.27;101834.75;6042976;29;20604;-73
2020/12/21 03:24:03;;;;;;;10.07;7.87;;;;;;;9.56;64.09;101835.41;6033458;29;20253;-74
2020/12/21 03:27:24;;;;;;;8.27;7.13;;;;;;;9.67;64.08;101835.50;6033464;29;20241;-73
2020/12/21 03:30:45;;;;;;;12.27;7.60;;;;;;;9.93;63.11;101827.13;6043432;29;20328;-74
2020/12/21 03:34:05;;;;;;;12.93;9.20;;;;;;;9.71;63.55;101826.88;6033691;29;20230;-74
2020/12/21 03:37:26;;;;;;;11.00;6.60;;;;;;;9.96;62.96;101832.31;6042779;29;20309;-74
2020/12/21 03:40:46;;;;;;;15.43;8.60;;;;;;;9.60;64.45;101829.38;6045857;29;20256;-73
2020/12/21 03:44:08;;;;;;;10.50;7.40;;;;;;;9.90;63.14;101840.06;6036718;29;20258;-74
2020/12/21 03:47:28;;;;;;;11.67;7.43;;;;;;;9.67;64.05;101835.50;6044234;29;20229;-73
2020/12/21 03:50:49;;;;;;;13.20;8.33;;;;;;;9.88;63.20;101834.84;6044586;29;20300;-74
2020/12/21 03:54:09;;;;;;;15.47;7.77;;;;;;;9.84;63.71;101839.16;6043650;29;20253;-74
2020/12/21 03:57:29;;;;;;;15.63;8.27;;;;;;;9.58;64.40;101833.69;6038250;29;20245;-74
2020/12/21 04:00:51;;;;;;;13.70;8.60;;;;;;;9.55;64.51;101831.03;6046734;29;20261;-74
2020/12/21 04:04:11;;;;;;;17.37;8.53;;;;;;;9.20;65.86;101834.09;6045434;29;20233;-74
2020/12/21 04:07:35;;;;;;;14.50;9.33;;;;;;;9.23;66.00;101834.13;6039706;29;20332;-74
2020/12/21 04:10:58;;;;;;;15.63;8.50;;;;;;;9.01;66.98;101832.09;6046787;29;20289;-73
2020/12/21 04:14:19;;;;;;;10.27;8.00;;;;;;;9.38;65.44;101827.38;6047422;29;20631;-73
2020/12/21 04:17:40;;;;;;;15.20;9.00;;;;;;;9.55;65.05;101815.44;6046959;29;21122;-72
2020/12/21 04:21:01;;;;;;;11.83;9.03;;;;;;;9.90;63.56;101814.91;6048921;29;20237;-73
2020/12/21 04:24:22;;;;;;;13.07;9.23;;;;;;;9.82;63.82;101820.06;6048539;29;20241;-73
2020/12/21 04:27:42;;;;;;;12.87;9.83;;;;;;;9.65;64.39;101822.50;6047482;29;20230;-73
2020/12/21 04:31:03;;;;;;;17.63;10.17;;;;;;;9.46;65.35;101821.41;6046552;29;20230;-73
2020/12/21 04:34:25;;;;;;;12.67;8.30;;;;;;;9.68;64.27;101826.00;6047800;29;20253;-73
2020/12/21 04:37:45;;;;;;;17.57;9.47;;;;;;;9.99;63.63;101829.78;6043854;29;20234;-73
2020/12/21 04:41:06;;;;;;;20.57;9.67;;;;;;;10.02;63.48;101822.88;6047976;29;20352;-73
2020/12/21 04:44:27;;;;;;;11.07;8.07;;;;;;;9.98;63.31;101825.41;6045373;29;20269;-74
2020/12/21 04:47:48;;;;;;;15.93;9.57;;;;;;;9.93;63.38;101824.50;6044947;29;20241;-74
2020/12/21 04:51:10;;;;;;;17.33;9.80;;;;;;;10.19;62.44;101825.59;6048347;29;20320;-74
2020/12/21 04:54:30;;;;;;;11.70;9.37;;;;;;;10.07;62.90;101828.09;6046968;29;20242;-74
2020/12/21 04:57:56;;;;;;;11.13;8.33;;;;;;;10.07;62.97;101824.63;6035071;29;20238;-73
2020/12/21 05:01:16;;;;;;;15.50;9.57;;;;;;;9.74;64.07;101833.84;6047174;29;20620;-74
2020/12/21 05:04:37;;;;;;;16.93;12.07;;;;;;;9.82;64.33;101829.59;6047328;29;20242;-73
2020/12/21 05:08:07;;;;;;;11.53;7.57;;;;;;;10.10;63.52;101827.25;6040798;29;20245;-73
2020/12/21 05:11:28;;;;;;;13.53;8.93;;;;;;;10.07;63.28;101820.28;6041695;29;20249;-74
2020/12/21 05:14:49;;;;;;;14.50;8.33;;;;;;;10.06;63.23;101821.13;6047943;29;20238;-74
2020/12/21 05:18:11;;;;;;;11.07;8.33;;;;;;;10.05;63.55;101827.22;6047324;29;20241;-74
2020/12/21 05:21:32;;;;;;;12.83;8.70;;;;;;;9.73;64.27;101822.59;6042828;29;20808;-73
2020/12/21 05:25:04;;;;;;;12.30;8.80;;;;;;;9.68;64.73;101831.19;6034390;29;20234;-73
2020/12/21 05:28:27;;;;;;;15.23;8.33;;;;;;;9.76;64.36;101832.13;6042326;29;20615;-73
2020/12/21 05:31:49;;;;;;;14.13;9.47;;;;;;;9.70;64.65;101829.47;6045832;29;20551;-74
2020/12/21 05:35:11;;;;;;;14.40;10.13;;;;;;;9.99;63.70;101835.84;6044153;29;20250;-74
2020/12/21 05:38:31;;;;;;;13.47;9.93;;;;;;;9.87;63.82;101835.72;6042706;29;20612;-73
2020/12/21 05:41:53;;;;;;;12.00;8.70;;;;;;;9.71;64.68;101831.22;6042007;29;20234;-74
2020/12/21 05:45:14;;;;;;;13.70;10.27;;;;;;;9.63;64.91;101832.00;6041690;29;20671;-74
2020/12/21 05:48:37;;;;;;;15.20;9.50;;;;;;;9.54;65.51;101834.50;6045270;29;20245;-74
2020/12/21 05:52:15;;;;;;;14.70;9.30;;;;;;;9.77;64.60;101836.47;6039401;29;20629;-73
2020/12/21 05:55:36;;;;;;;14.63;8.67;;;;;;;10.04;63.48;101834.16;6041710;29;20237;-75
2020/12/21 05:58:59;;;;;;;14.20;11.00;;;;;;;9.61;65.02;101823.28;6045751;29;20237;-74
2020/12/21 06:02:19;;;;;;;19.25;10.35;;;;;;;9.68;64.89;101836.41;6044811;29;20758;-75
2020/12/21 06:05:46;;;;;;;12.27;8.67;;;;;;;9.53;65.73;101830.16;6035590;29;20238;-75
2020/12/21 06:09:06;;;;;;;13.67;8.47;;;;;;;9.85;64.87;101830.50;6046234;29;20238;-74
2020/12/21 06:12:29;;;;;;;12.97;8.93;;;;;;;10.03;63.54;101834.13;6043736;29;20569;-74
2020/12/21 06:15:51;;;;;;;13.10;8.00;;;;;;;9.96;64.16;101833.19;6046097;29;20242;-73
2020/12/21 06:19:12;;;;;;;13.60;9.07;;;;;;;10.03;63.47;101832.41;6046290;29;20234;-73
2020/12/21 06:22:32;;;;;;;13.90;8.60;;;;;;;10.11;63.43;101836.81;6030346;29;20229;-73
2020/12/21 06:25:53;;;;;;;11.53;8.33;;;;;;;9.74;65.06;101833.84;6036670;29;20234;-72
2020/12/21 06:29:15;;;;;;;13.90;9.63;;;;;;;9.60;65.00;101839.78;6045799;29;20254;-73
2020/12/21 06:32:38;;;;;;;13.47;8.60;;;;;;;9.48;65.36;101839.66;6039664;29;20245;-74
2020/12/21 06:36:00;;;;;;;18.13;9.40;;;;;;;9.70;66.44;101845.94;6040374;29;20230;-76
2020/12/21 06:39:23;;;;;;;13.67;8.93;;;;;;;10.04;64.38;101839.38;6043861;29;20398;-75
2020/12/21 06:42:44;;;;;;;17.30;10.23;;;;;;;10.02;64.17;101848.00;6036024;29;20234;-77
2020/12/21 06:46:14;;;;;;;17.50;10.60;;;;;;;9.60;65.27;101844.97;6027524;29;20230;-78
2020/12/21 06:49:36;;;;;;;12.97;8.70;;;;;;;9.63;65.25;101839.81;6044245;29;20261;-75
2020/12/21 06:52:57;;;;;;;12.17;9.63;;;;;;;9.58;65.58;101851.03;6035827;29;20233;-75
2020/12/21 06:56:19;;;;;;;17.33;9.70;;;;;;;9.72;64.63;101841.63;6040063;29;20238;-75
2020/12/21 06:59:39;;;;;;;13.37;8.87;;;;;;;9.54;65.34;101850.09;6045346;29;20234;-75
2020/12/21 07:03:00;;;;;;;11.97;9.10;;;;;;;9.64;64.91;101849.34;6042783;29;20853;-75
2020/12/21 07:06:22;;;;;;;13.30;7.97;;;;;;;9.75;64.92;101848.59;6036982;29;20238;-75
2020/12/21 07:09:42;;;;;;;12.23;7.27;;;;;;;9.57;65.21;101859.66;6043790;29;20678;-75
2020/12/21 07:13:03;;;;;;;13.03;7.53;;;;;;;9.45;65.80;101856.06;6040963;29;20237;-75
2020/12/21 07:16:23;;;;;;;15.50;9.17;;;;;;;9.50;65.26;101856.13;6045719;29;20257;-75
2020/12/21 07:19:44;;;;;;;14.27;7.83;;;;;;;9.80;64.26;101867.72;6041854;29;20233;-76
2020/12/21 07:23:06;;;;;;;16.83;9.20;;;;;;;9.59;64.81;101866.63;6036628;29;20730;-76
2020/12/21 07:26:27;;;;;;;17.27;9.20;;;;;;;9.75;64.42;101869.41;6040226;29;20337;-75
2020/12/21 07:29:47;;;;;;;12.73;9.23;;;;;;;9.35;65.62;101874.13;6041017;29;20517;-74
2020/12/21 07:33:08;;;;;;;15.67;8.67;;;;;;;9.51;65.15;101875.19;6033360;29;20695;-74
2020/12/21 07:36:30;;;;;;;16.53;8.93;;;;;;;9.53;65.19;101873.50;6040710;29;20230;-75
2020/12/21 07:39:52;;;;;;;14.47;9.20;;;;;;;9.37;65.10;101873.28;6043601;29;20238;-76
2020/12/21 07:43:18;;;;;;;13.40;8.73;;;;;;;9.57;64.37;101864.88;6037306;29;20234;-76
2020/12/21 07:46:43;;;;;;;13.47;8.07;;;;;;;9.61;64.50;101861.44;6037927;29;20534;-74
2020/12/21 07:50:06;;;;;;;11.57;6.73;;;;;;;9.49;64.43;101869.97;6035157;29;20245;-74
2020/12/21 07:53:31;;;;;;;13.97;8.57;;;;;;;9.46;64.40;101875.16;6020775;29;20243;-74
2020/12/21 07:57:00;;;;;;;16.57;8.83;;;;;;;9.24;65.77;101879.19;6044313;29;20242;-73
2020/12/21 08:00:20;;;;;;;12.47;7.97;;;;;;;9.17;65.46;101874.75;6036622;29;20316;-74
2020/12/21 08:03:41;;;;;;;11.77;8.30;;;;;;;9.21;65.54;101874.81;6037935;29;20245;-75
2020/12/21 08:07:05;;;;;;;20.07;10.03;;;;;;;9.25;64.91;101868.81;6041560;29;20237;-75
2020/12/21 08:10:25;;;;;;;16.57;8.47;;;;;;;9.10;65.91;101878.13;6036063;29;20518;-75
2020/12/21 08:13:48;;;;;;;15.53;8.10;;;;;;;9.22;65.38;101873.09;6039654;29;20692;-75
2020/12/21 08:17:10;;;;;;;15.80;8.90;;;;;;;8.78;66.60;101883.72;6023151;29;20241;-75
2020/12/21 08:20:30;;;;;;;15.60;7.77;;;;;;;9.25;65.19;101876.63;6037236;29;20234;-75
2020/12/21 08:23:53;;;;;;;13.80;8.23;;;;;;;9.23;65.06;101878.31;6036690;29;20356;-74
2020/12/21 08:27:18;;;;;;;16.67;9.73;;;;;;;9.34;64.54;101885.38;6038865;29;20245;-76
2020/12/21 08:30:42;;;;;;;10.87;7.47;;;;;;;9.69;63.61;101869.34;6035978;29;20237;-74
2020/12/21 08:34:05;;;;;;;14.13;8.57;;;;;;;9.82;63.09;101881.63;6035815;29;20609;-74
2020/12/21 08:37:27;;;;;;;18.27;7.40;;;;;;;9.89;62.90;101875.66;6036492;29;20234;-74
2020/12/21 08:40:54;;;;;;;14.47;6.83;;;;;;;9.63;63.63;101875.34;6038322;29;20606;-73
2020/12/21 08:44:19;;;;;;;22.13;7.97;;;;;;;10.17;61.63;101881.13;6041438;29;20325;-74
2020/12/21 08:47:40;;;;;;;15.80;6.87;;;;;;;10.50;60.05;101879.72;6040575;29;20233;-74
2020/12/21 08:51:01;;;;;;;12.83;6.37;;;;;;;12.09;56.63;101866.59;6036410;29;20624;-77
2020/12/21 08:54:21;;;;;;;13.10;6.53;;;;;;;13.78;51.68;101862.78;6041629;29;20655;-74
2020/12/21 08:57:42;;;;;;;13.73;5.93;;;;;;;13.25;51.33;101869.09;6043998;29;20249;-78
2020/12/21 09:01:04;;;;;;;11.27;5.90;;;;;;;14.79;48.84;101861.13;6044555;29;20321;-77
2020/12/21 09:04:26;;;;;;;9.80;4.53;;;;;;;15.50;46.51;101858.59;6043300;29;20503;-79
2020/12/21 09:07:47;;;;;;;11.97;6.00;;;;;;;14.81;48.40;101869.88;6040608;29;20261;-76
2020/12/21 09:11:07;;;;;;;7.63;4.57;;;;;;;14.92;46.87;101872.38;6032561;29;20265;-75
2020/12/21 09:14:28;;;;;;;9.03;5.00;;;;;;;14.79;47.05;101884.75;6027256;29;29000;-76
2020/12/21 09:17:48;;;;;;;12.05;5.80;;;;;;;14.34;48.56;101874.59;6039317;29;20822;-76
2020/12/21 09:21:10;;;;;;;11.60;5.43;;;;;;;13.98;48.80;101879.25;6030804;29;20237;-76
2020/12/21 09:24:30;;;;;;;9.35;5.53;;;;;;;14.84;47.27;101868.97;6039088;29;20246;-74
2020/12/21 09:27:51;;;;;;;11.38;4.53;;;;;;;14.11;49.14;101873.91;6037664;29;20246;-75
2020/12/21 09:31:12;;;;;;;15.73;5.38;;;;;;;14.47;48.28;101864.03;6042528;29;20238;-76
2020/12/21 09:34:32;;;;;;;9.77;3.88;;;;;;;13.89;49.03;101868.81;6034862;29;20872;-77
2020/12/21 09:37:54;;;;;;;12.05;5.40;;;;;;;13.53;51.37;101868.16;6038163;29;20237;-75
2020/12/21 09:41:17;;;;;;;7.33;4.00;;;;;;;13.47;50.73;101876.00;6038430;29;20663;-77
2020/12/21 09:44:38;;;;;;;11.77;5.00;;;;;;;12.59;52.57;101875.31;6030537;29;20265;-75
2020/12/21 09:47:58;;;;;;;9.33;4.97;;;;;;;12.90;52.68;101872.69;6038642;29;20234;-77
2020/12/21 09:51:20;;;;;;;9.15;4.68;;;;;;;13.25;52.64;101864.72;6032668;29;20273;-76
2020/12/21 09:54:41;;;;;;;7.68;4.63;;;;;;;12.15;54.45;101863.13;6033606;29;20248;-76
2020/12/21 09:58:02;;;;;;;14.18;5.78;;;;;;;12.06;54.25;101865.72;6038930;29;20250;-76
2020/12/21 10:01:27;;;;;;;12.37;5.10;;;;;;;11.56;56.06;101860.34;6039001;29;20537;-75
2020/12/21 10:04:48;;;;;;;7.57;4.43;;;;;;;11.80;56.07;101848.22;6028170;29;20237;-74
2020/12/21 10:08:08;;;;;;;11.27;4.67;;;;;;;11.96;55.75;101855.28;6021614;29;20230;-77
2020/12/21 10:11:30;;;;;;;10.30;4.70;;;;;;;11.64;56.08;101847.31;6049136;29;20346;-76
2020/12/21 10:14:51;;;;;;;10.63;4.50;;;;;;;11.51;56.39;101851.63;6032102;29;20242;-77
2020/12/21 10:18:11;;;;;;;8.87;4.07;;;;;;;12.48;56.02;101843.09;6036174;29;20242;-74
2020/12/21 10:21:32;;;;;;;9.37;5.57;;;;;;;12.74;54.84;101838.72;6034095;29;20617;-75
2020/12/21 10:24:53;;;;;;;7.78;4.95;;;;;;;12.95;52.90;101839.53;6034780;29;20482;-76
2020/12/21 10:28:14;;;;;;;11.57;5.75;;;;;;;13.57;52.09;101825.38;6041489;29;20316;-76
2020/12/21 10:31:35;;;;;;;9.65;4.95;;;;;;;13.77;50.18;101821.78;6035436;29;20811;-77
2020/12/21 10:34:56;;;;;;;7.78;4.70;;;;;;;13.51;50.28;101814.97;6034934;29;20261;-75
2020/12/21 10:38:16;;;;;;;9.82;5.13;;;;;;;13.50;51.07;101810.59;6040362;29;21134;-75
2020/12/21 10:41:37;;;;;;;7.88;3.97;;;;;;;13.39;51.12;101799.31;6033816;29;20313;-76
2020/12/21 10:44:59;;;;;;;10.40;5.20;;;;;;;13.08;51.31;101803.78;6035394;29;20708;-75
2020/12/21 10:48:19;;;;;;;9.27;4.53;;;;;;;13.34;50.93;101795.84;6033715;29;20343;-75
2020/12/21 10:51:40;;;;;;;9.00;4.43;;;;;;;12.84;52.53;101796.88;6028939;29;20237;-74
2020/12/21 10:55:00;;;;;;;8.60;4.43;;;;;;;11.98;54.77;101790.88;6036299;29;20249;-75
2020/12/21 10:58:21;;;;;;;6.63;3.53;;;;;;;12.47;54.17;101799.56;6035668;29;20601;-75
2020/12/21 11:01:46;;;;;;;10.20;5.43;;;;;;;12.24;53.86;101795.22;6041379;29;20241;-75
2020/12/21 11:05:07;;;;;;;12.07;4.90;;;;;;;13.00;52.38;101791.59;6034689;29;20241;-75
2020/12/21 11:08:27;;;;;;;10.23;4.57;;;;;;;12.32;54.24;101784.78;6035784;29;20242;-75
2020/12/21 11:11:47;;;;;;;8.53;4.60;;;;;;;12.36;53.29;101787.38;6038652;29;20246;-74
2020/12/21 11:15:08;;;;;;;8.73;4.87;;;;;;;12.31;53.91;101778.69;6032396;29;20249;-74
2020/12/21 11:18:29;;;;;;;7.47;3.73;;;;;;;12.76;52.53;101762.94;6034762;29;20355;-74
2020/12/21 11:21:50;;;;;;;10.40;4.10;;;;;;;12.49;52.92;101756.03;6035375;29;20344;-74
2020/12/21 11:25:10;;;;;;;5.87;3.10;;;;;;;12.40;53.63;101752.53;6027037;29;20306;-74
2020/12/21 11:28:31;;;;;;;8.40;4.33;;;;;;;12.14;54.60;101749.09;6030169;29;20245;-74
2020/12/21 11:31:52;;;;;;;7.67;4.03;;;;;;;12.54;52.73;101749.03;6028156;29;20245;-75
2020/12/21 11:35:13;;;;;;;8.53;4.03;;;;;;;12.94;52.32;101744.53;6034930;29;20261;-75
2020/12/21 11:38:34;;;;;;;10.63;4.87;;;;;;;13.04;51.23;101734.91;6033615;29;20230;-76
2020/12/21 11:41:55;;;;;;;7.00;4.40;;;;;;;13.56;50.59;101728.56;6030755;29;20238;-75
2020/12/21 11:45:16;;;;;;;9.37;4.53;;;;;;;14.09;49.15;101724.63;6032820;29;20238;-76
2020/12/21 11:48:36;;;;;;;7.67;4.80;;;;;;;14.19;48.24;101709.72;6034422;29;20608;-76
2020/12/21 11:51:58;;;;;;;8.70;4.20;;;;;;;13.94;48.49;101712.56;6034816;29;20238;-75
2020/12/21 11:55:19;;;;;;;9.37;4.50;;;;;;;14.33;48.48;101720.06;6030052;29;20628;-76
2020/12/21 11:58:40;;;;;;;9.43;4.53;;;;;;;14.16;49.02;101710.59;6037604;29;20675;-74
2020/12/21 12:02:02;;;;;;;8.57;4.17;;;;;;;13.71;49.51;101704.03;6036397;29;20241;-75
2020/12/21 12:05:23;;;;;;;8.00;3.57;;;;;;;14.37;48.27;101699.03;6028838;29;20332;-77
2020/12/21 12:08:44;;;;;;;7.70;3.77;;;;;;;14.73;47.35;101696.03;6036581;29;20246;-77
2020/12/21 12:12:05;;;;;;;10.73;4.33;;;;;;;14.37;47.57;101696.41;6036717;29;20237;-76
2020/12/21 12:15:26;;;;;;;6.73;3.60;;;;;;;14.47;47.33;101696.31;6033142;29;20245;-76
2020/12/21 12:18:46;;;;;;;9.73;4.67;;;;;;;14.38;47.37;101690.28;6030986;29;20288;-75
2020/12/21 12:22:07;;;;;;;10.47;4.03;;;;;;;14.61;47.51;101681.31;6032826;29;20226;-75
2020/12/21 12:25:28;;;;;;;9.20;3.43;;;;;;;15.04;46.58;101675.50;6032292;29;20246;-77
2020/12/21 12:28:49;;;;;;;6.37;3.17;;;;;;;14.95;47.08;101680.91;6030968;29;20250;-77
2020/12/21 12:32:10;;;;;;;6.63;3.40;;;;;;;15.00;46.66;101673.81;6035514;29;20245;-78
2020/12/21 12:35:31;;;;;;;5.93;2.73;;;;;;;15.25;45.97;101670.84;6036224;29;20233;-78
2020/12/21 12:38:52;;;;;;;5.67;3.10;;;;;;;14.94;46.32;101668.66;6039377;29;20811;-75
2020/12/21 12:42:13;;;;;;;7.17;3.30;;;;;;;13.90;47.41;101663.72;6039671;29;20242;-76
2020/12/21 12:45:34;;;;;;;7.77;3.70;;;;;;;14.15;47.23;101663.44;6037501;29;20241;-78
2020/12/21 12:48:54;;;;;;;8.50;3.27;;;;;;;13.72;48.41;101666.47;6038535;29;20245;-76
2020/12/21 12:52:15;;;;;;;8.47;3.43;;;;;;;13.26;49.33;101649.38;6031451;29;20241;-76
2020/12/21 12:55:36;;;;;;;9.43;4.50;;;;;;;13.03;50.32;101633.84;6039035;29;20241;-75
2020/12/21 12:58:57;;;;;;;10.20;3.40;;;;;;;13.07;50.11;101640.78;6053668;29;20328;-75
2020/12/21 13:02:18;;;;;;;8.10;3.40;;;;;;;13.22;49.68;101631.94;6042690;29;20238;-78
2020/12/21 13:05:38;;;;;;;7.23;3.00;;;;;;;13.14;49.89;101632.03;6033872;29;20246;-78
2020/12/21 13:08:59;;;;;;;5.90;2.40;;;;;;;13.46;49.59;101630.94;6041530;29;20314;-77
2020/12/21 13:12:19;;;;;;;6.67;3.20;;;;;;;13.47;49.38;101632.66;6034888;29;20233;-76
2020/12/21 13:15:41;;;;;;;11.60;3.43;;;;;;;13.45;49.42;101646.63;6040809;29;20242;-76
2020/12/21 13:19:01;;;;;;;9.10;3.57;;;;;;;12.95;50.46;101639.09;6040339;29;20237;-75
2020/12/21 13:22:22;;;;;;;7.67;3.80;;;;;;;12.74;51.09;101640.09;6038465;29;20238;-75
2020/12/21 13:25:42;;;;;;;6.73;4.03;;;;;;;12.51;51.46;101641.94;6043273;29;20617;-79
2020/12/21 13:29:03;;;;;;;8.03;3.30;;;;;;;12.84;51.31;101640.03;6037052;29;20273;-75
2020/12/21 13:32:25;;;;;;;7.33;3.37;;;;;;;12.87;50.60;101637.41;6041975;29;20336;-75
2020/12/21 13:35:46;;;;;;;5.43;3.20;;;;;;;12.88;54.46;101637.41;6036831;29;20242;-76
2020/12/21 13:39:06;;;;;;;4.77;2.83;;;;;;;13.05;52.66;101626.00;6036446;29;20514;-76
2020/12/21 13:42:27;;;;;;;6.27;3.43;;;;;;;12.89;51.42;101619.97;6008126;29;20253;-78
2020/12/21 13:45:48;;;;;;;10.30;3.50;;;;;;;12.91;52.27;101620.81;6026507;29;20242;-75
2020/12/21 13:49:09;;;;;;;7.00;3.53;;;;;;;13.00;50.49;101612.91;6012480;29;20246;-75
2020/12/21 13:52:30;;;;;;;7.03;4.03;;;;;;;12.33;51.83;101615.00;6043899;29;20829;-75
2020/12/21 13:55:50;;;;;;;6.47;3.57;;;;;;;12.49;51.95;101607.13;6036519;29;20257;-75
2020/12/21 13:59:11;;;;;;;9.40;3.70;;;;;;;12.59;51.59;101612.28;6046536;29;20229;-75
2020/12/21 14:02:32;;;;;;;6.77;3.70;;;;;;;12.56;51.33;101599.25;6035684;29;20887;-75
2020/12/21 14:05:53;;;;;;;6.33;3.67;;;;;;;12.46;51.76;101594.06;6036909;29;20249;-75
2020/12/21 14:09:14;;;;;;;10.27;5.77;;;;;;;12.65;51.61;101595.69;6045351;29;20328;-76
2020/12/21 14:12:37;;;;;;;6.67;3.67;;;;;;;12.50;52.00;101591.41;6023465;29;20233;-75
2020/12/21 14:15:58;;;;;;;9.73;3.83;;;;;;;12.28;52.49;101582.81;6029969;29;20241;-74
2020/12/21 14:19:18;;;;;;;11.20;5.23;;;;;;;12.32;52.49;101581.91;6035779;29;20813;-72
2020/12/21 14:22:40;;;;;;;8.87;4.63;;;;;;;12.26;52.89;101576.72;6031575;29;20241;-74
2020/12/21 14:26:00;;;;;;;4.17;3.03;;;;;;;11.95;53.60;101578.56;6033454;29;20824;-74
2020/12/21 14:29:21;;;;;;;9.17;3.70;;;;;;;11.92;53.70;101582.06;6023583;29;20237;-75
2020/12/21 14:32:42;;;;;;;9.33;4.83;;;;;;;12.04;53.31;101570.72;6021501;29;20245;-74
2020/12/21 14:36:02;;;;;;;7.07;3.90;;;;;;;11.63;54.34;101574.22;6038289;29;20631;-74
2020/12/21 14:39:24;;;;;;;4.07;3.50;;;;;;;11.90;53.67;101570.72;6043188;29;20624;-73
2020/12/21 14:42:44;;;;;;;9.67;4.20;;;;;;;11.60;54.42;101575.13;6039508;29;20261;-74
2020/12/21 14:46:05;;;;;;;6.77;3.80;;;;;;;11.58;54.63;101560.34;6036885;29;20271;-75
2020/12/21 14:49:25;;;;;;;7.53;4.17;;;;;;;11.52;54.78;101562.97;6042718;29;20234;-75
2020/12/21 14:52:49;;;;;;;11.43;3.73;;;;;;;11.35;54.89;101562.97;6028513;29;20229;-74
2020/12/21 14:56:15;;;;;;;6.07;3.67;;;;;;;11.25;55.18;101551.69;6038522;29;20229;-75
2020/12/21 14:59:36;;;;;;;6.60;3.43;;;;;;;11.39;55.30;101560.34;6045372;29;20245;-74
2020/12/21 15:02:56;;;;;;;7.68;3.83;;;;;;;11.19;55.77;101562.09;6034740;29;20758;-74
2020/12/21 15:06:17;;;;;;;7.37;3.53;;;;;;;11.17;55.34;101551.66;6044535;29;20245;-75
2020/12/21 15:09:37;;;;;;;12.53;3.83;;;;;;;10.97;55.97;101556.00;6042469;29;20238;-74
2020/12/21 15:12:59;;;;;;;6.53;3.60;;;;;;;11.07;55.63;101557.75;6039096;29;20233;-73
2020/12/21 15:16:19;;;;;;;10.90;5.53;;;;;;;11.23;55.55;101554.28;6039305;29;20241;-75
2020/12/21 15:19:39;;;;;;;6.60;4.17;;;;;;;11.36;55.38;101556.88;6042818;29;20237;-74
2020/12/21 15:23:01;;;;;;;5.23;3.67;;;;;;;11.44;54.75;101542.09;6042028;29;22237;-74
2020/12/21 15:26:21;;;;;;;7.57;4.37;;;;;;;11.17;55.30;101541.25;6042222;29;20230;-74
2020/12/21 15:29:43;;;;;;;7.93;4.63;;;;;;;11.10;55.50;101529.06;6027619;29;20225;-73
2020/12/21 15:33:03;;;;;;;10.03;3.97;;;;;;;11.21;55.24;101529.94;6043174;29;20253;-75